Time;durP1;ratioP1;P1;durP2;ratioP2;P2;SDS_P1;SDS_P2;PMS_P1;PMS_P2;Temp;Humidity;BMP_temperature;BMP_pressure;BME280_temperature;BME280_humidity;BME280_pressure;Samples;Min_cycle;Max_cycle;Signal;HPM_P1;HPM_P2
2022/08/04 00:00:21;;;;;;;3.95;2.70;;;;;;;17.69;84.66;98303.31;1782500;80;20909;-67
2022/08/04 00:03:11;;;;;;;5.62;2.27;;;;;;;17.67;84.69;98301.50;1782769;80;21115;-67
2022/08/04 00:05:52;;;;;;;5.67;2.20;;;;;;;17.63;84.85;98296.52;1781803;80;20978;-67
2022/08/04 00:08:30;;;;;;;5.22;2.37;;;;;;;17.56;85.01;98296.80;1782692;80;20873;-67
2022/08/04 00:10:59;;;;;;;3.37;2.00;;;;;;;17.49;85.22;98297.28;1782655;79;20892;-67
2022/08/04 00:13:29;;;;;;;3.70;2.05;;;;;;;17.44;85.22;98285.28;1782648;80;20924;-67
2022/08/04 00:15:58;;;;;;;4.62;1.87;;;;;;;17.42;85.29;98290.23;1782843;80;21205;-67
2022/08/04 00:18:33;;;;;;;6.42;1.90;;;;;;;17.39;85.49;98284.11;1782677;80;20959;-67
2022/08/04 00:21:03;;;;;;;4.15;1.92;;;;;;;17.41;85.79;98285.13;1781671;80;20869;-67
2022/08/04 00:23:32;;;;;;;4.45;1.85;;;;;;;17.46;86.03;98284.39;1782523;80;20919;-67
2022/08/04 00:26:00;;;;;;;6.92;2.05;;;;;;;17.50;86.23;98292.09;1782662;79;20915;-67
2022/08/04 00:28:28;;;;;;;5.58;1.80;;;;;;;17.47;86.41;98285.99;1782633;80;21107;-67
2022/08/04 00:30:55;;;;;;;4.53;2.10;;;;;;;17.45;86.66;98288.79;1782583;80;21424;-67
2022/08/04 00:33:22;;;;;;;6.12;1.90;;;;;;;17.39;86.78;98286.82;1782627;80;20924;-67
2022/08/04 00:35:48;;;;;;;2.60;1.80;;;;;;;17.32;87.05;98279.77;1782633;80;20893;-67
2022/08/04 00:38:18;;;;;;;2.50;1.60;;;;;;;17.26;87.34;98283.80;1782759;79;20963;-66
2022/08/04 00:40:56;;;;;;;4.83;2.10;;;;;;;17.23;87.56;98282.29;1782728;80;21259;-66
2022/08/04 00:44:09;;;;;;;6.28;2.10;;;;;;;17.21;87.65;98283.18;1782431;80;21555;-66
2022/08/04 00:46:53;;;;;;;3.85;1.75;;;;;;;17.20;87.65;98287.79;1782634;79;20913;-66
2022/08/04 00:49:31;;;;;;;6.83;1.95;;;;;;;17.15;87.73;98285.27;1782797;79;20904;-66
2022/08/04 00:52:34;;;;;;;2.27;1.75;;;;;;;17.11;87.86;98292.45;1782788;79;21393;-66
2022/08/04 00:55:44;;;;;;;5.55;2.50;;;;;;;17.10;88.04;98290.85;1782656;80;21920;-67
2022/08/04 00:58:38;;;;;;;6.42;2.27;;;;;;;17.10;88.16;98288.14;1782566;80;20919;-66
2022/08/04 01:01:07;;;;;;;3.58;2.08;;;;;;;17.10;88.20;98302.48;1782443;80;21001;-67
2022/08/04 01:03:51;;;;;;;4.20;2.15;;;;;;;17.09;88.27;98293.34;1782701;80;20968;-67
2022/08/04 01:06:44;;;;;;;6.75;2.20;;;;;;;17.08;88.40;98300.66;1783858;79;20908;-67
2022/08/04 01:09:25;;;;;;;5.97;2.00;;;;;;;17.03;88.47;98304.89;1782743;79;21225;-67
2022/08/04 01:12:44;;;;;;;5.45;2.17;;;;;;;17.02;88.63;98306.03;1782686;80;20845;-65
2022/08/04 01:15:39;;;;;;;8.15;2.30;;;;;;;17.03;88.75;98309.50;1775799;80;20904;-66
2022/08/04 01:18:07;;;;;;;4.45;1.98;;;;;;;16.97;88.80;98304.84;1771892;81;21052;-66
2022/08/04 01:20:42;;;;;;;3.65;2.00;;;;;;;16.94;88.92;98306.84;1772080;81;20925;-66
2022/08/04 01:23:26;;;;;;;3.80;1.80;;;;;;;16.94;89.01;98303.34;1772000;81;21126;-66
2022/08/04 01:26:07;;;;;;;5.70;2.20;;;;;;;16.95;89.15;98308.44;1772370;80;20976;-66
2022/08/04 01:29:11;;;;;;;3.83;2.00;;;;;;;16.98;89.15;98299.66;1771913;81;20904;-66
2022/08/04 01:32:03;;;;;;;2.62;1.60;;;;;;;16.98;89.08;98301.02;1771891;81;20920;-66
2022/08/04 01:34:38;;;;;;;3.35;1.70;;;;;;;16.95;89.14;98300.87;1771945;81;20885;-66
2022/08/04 01:37:22;;;;;;;4.87;1.97;;;;;;;16.95;89.19;98313.86;1771906;80;21212;-66
2022/08/04 01:39:59;;;;;;;3.25;1.75;;;;;;;16.97;89.09;98314.32;1771783;80;21537;-66
2022/08/04 01:42:26;;;;;;;5.67;2.00;;;;;;;16.98;89.04;98311.06;1771896;81;20948;-66
2022/08/04 01:44:52;;;;;;;7.83;2.10;;;;;;;17.00;89.04;98310.17;1772238;81;21513;-67
2022/08/04 01:47:20;;;;;;;4.90;1.95;;;;;;;16.98;88.98;98311.06;1772008;81;20881;-67
2022/08/04 01:49:48;;;;;;;2.37;1.62;;;;;;;16.95;88.96;98304.94;1771909;79;21073;-67
2022/08/04 01:52:16;;;;;;;4.45;1.98;;;;;;;16.91;88.99;98302.06;1772074;81;20954;-67
2022/08/04 01:54:43;;;;;;;5.42;1.90;;;;;;;16.89;89.05;98300.80;1771868;81;20940;-67
2022/08/04 01:57:10;;;;;;;2.50;1.82;;;;;;;16.85;89.05;98308.78;1771965;81;20921;-67
2022/08/04 01:59:37;;;;;;;3.17;2.00;;;;;;;16.79;89.18;98306.58;1772001;81;20874;-66
2022/08/04 02:02:05;;;;;;;2.87;2.00;;;;;;;16.76;89.34;98309.37;1771969;81;21518;-67
2022/08/04 02:04:31;;;;;;;3.25;1.82;;;;;;;16.75;89.42;98311.83;1771986;81;21392;-67
2022/08/04 02:07:16;;;;;;;5.50;2.02;;;;;;;16.75;89.39;98307.77;1771965;81;20894;-67
2022/08/04 02:09:54;;;;;;;3.17;1.82;;;;;;;16.72;89.58;98306.28;1771960;81;21008;-67
2022/08/04 02:12:52;;;;;;;3.70;2.10;;;;;;;16.70;89.67;98308.52;1768785;80;20877;-66
2022/08/04 02:15:48;;;;;;;6.35;1.65;;;;;;;16.69;89.85;98305.56;1774030;80;21826;-67
2022/08/04 02:18:44;;;;;;;2.17;1.75;;;;;;;16.71;89.82;98310.09;1782437;80;20928;-66
2022/08/04 02:21:11;;;;;;;4.12;1.90;;;;;;;16.68;89.88;98306.67;1782878;79;20900;-65
2022/08/04 02:23:42;;;;;;;2.20;1.77;;;;;;;16.67;90.10;98307.80;1782660;79;21012;-65
2022/08/04 02:26:18;;;;;;;5.60;2.10;;;;;;;16.72;90.31;98302.23;1782655;79;20932;-65
2022/08/04 02:29:20;;;;;;;5.03;1.90;;;;;;;16.74;89.99;98304.05;1782554;80;21227;-65
2022/08/04 02:32:03;;;;;;;3.42;2.10;;;;;;;16.69;89.90;98302.86;1782572;79;20877;-67
2022/08/04 02:34:41;;;;;;;5.12;1.92;;;;;;;16.64;89.98;98301.67;1782779;80;20865;-67
2022/08/04 02:37:07;;;;;;;3.25;1.82;;;;;;;16.63;90.04;98306.28;1782649;79;20932;-66
2022/08/04 02:39:35;;;;;;;6.75;2.08;;;;;;;16.63;90.15;98308.22;1761084;80;21022;-66
2022/08/04 02:42:04;;;;;;;3.00;2.00;;;;;;;16.64;90.15;98309.79;1782620;80;21758;-66
2022/08/04 02:44:31;;;;;;;3.17;2.02;;;;;;;16.64;90.22;98312.49;1782484;80;20901;-67
2022/08/04 02:47:00;;;;;;;7.80;2.35;;;;;;;16.64;90.16;98312.49;1782519;79;20914;-67
2022/08/04 02:49:26;;;;;;;3.42;1.87;;;;;;;16.63;90.22;98313.05;1782513;80;20972;-67
2022/08/04 02:51:54;;;;;;;4.00;2.12;;;;;;;16.61;90.27;98314.48;1782652;79;20948;-67
2022/08/04 02:54:38;;;;;;;7.08;2.20;;;;;;;16.61;90.32;98319.89;1782617;80;21764;-67
2022/08/04 02:57:08;;;;;;;2.40;1.90;;;;;;;16.58;90.37;98313.79;1782584;79;20971;-67
2022/08/04 03:00:01;;;;;;;3.00;1.85;;;;;;;16.59;90.46;98320.22;1782539;80;20956;-67
2022/08/04 03:02:51;;;;;;;6.50;2.12;;;;;;;16.60;90.44;98319.67;1781870;80;20893;-66
2022/08/04 03:05:21;;;;;;;5.67;1.98;;;;;;;16.61;90.24;98314.48;1795025;79;20968;-66
2022/08/04 03:08:08;;;;;;;4.40;2.00;;;;;;;16.62;90.20;98310.67;1782936;79;21392;-67
2022/08/04 03:11:09;;;;;;;5.78;1.95;;;;;;;16.58;90.23;98311.09;1782142;80;20896;-67
2022/08/04 03:14:28;;;;;;;2.35;1.85;;;;;;;16.61;90.47;98311.77;1782644;80;20952;-66
2022/08/04 03:17:15;;;;;;;2.65;1.87;;;;;;;16.62;90.34;98314.18;1782583;79;21452;-66
2022/08/04 03:20:08;;;;;;;2.55;1.80;;;;;;;16.62;90.22;98312.02;1782670;80;20904;-66
2022/08/04 03:23:08;;;;;;;5.47;2.00;;;;;;;16.57;90.25;98312.99;1777689;80;21329;-66
2022/08/04 03:26:05;;;;;;;3.10;1.95;;;;;;;16.56;90.29;98318.73;1777535;80;20975;-66
2022/08/04 03:29:06;;;;;;;2.55;2.15;;;;;;;16.54;90.53;98315.53;1781458;80;20953;-66
2022/08/04 03:32:01;;;;;;;2.58;1.80;;;;;;;16.55;90.73;98318.48;1782613;80;20968;-66
2022/08/04 03:34:55;;;;;;;2.37;2.10;;;;;;;16.60;90.77;98315.61;1782630;80;20877;-66
2022/08/04 03:37:30;;;;;;;6.67;2.08;;;;;;;16.62;90.72;98316.88;1776784;80;21122;-67
2022/08/04 03:40:13;;;;;;;6.47;2.10;;;;;;;16.64;90.92;98320.61;1777782;80;21050;-66
2022/08/04 03:42:48;;;;;;;4.28;2.20;;;;;;;16.69;90.79;98321.80;1780513;80;21420;-66
2022/08/04 03:45:20;;;;;;;2.10;1.90;;;;;;;16.72;90.58;98323.28;1779789;80;20975;-66
2022/08/04 03:48:10;;;;;;;3.98;2.20;;;;;;;16.74;90.44;98327.04;1782651;80;20916;-66
2022/08/04 03:53:57;;;;;;;5.72;2.50;;;;;;;16.82;90.24;98332.97;1782571;80;21019;-66
2022/08/04 03:56:58;;;;;;;5.35;2.30;;;;;;;16.84;90.23;98325.34;1782517;80;20964;-67
2022/08/04 03:59:57;;;;;;;4.40;2.52;;;;;;;16.89;90.20;98335.42;1782498;80;20971;-67
2022/08/04 04:02:29;;;;;;;3.12;2.22;;;;;;;16.94;89.99;98338.51;1782279;80;21004;-67
2022/08/04 04:05:29;;;;;;;7.75;2.65;;;;;;;16.99;89.91;98332.92;1782590;80;21112;-66
2022/08/04 04:08:17;;;;;;;7.15;2.75;;;;;;;17.04;89.95;98332.75;1782447;79;20872;-67
2022/08/04 04:10:52;;;;;;;6.55;3.10;;;;;;;17.12;89.65;98328.44;1781543;80;21055;-67
2022/08/04 04:13:59;;;;;;;7.90;2.92;;;;;;;17.17;89.47;98333.09;1777919;80;20920;-67
2022/08/04 04:16:45;;;;;;;6.53;2.62;;;;;;;17.23;89.22;98334.52;1782407;80;20932;-67
2022/08/04 04:19:29;;;;;;;5.40;2.20;;;;;;;17.26;89.10;98336.59;1782533;79;21241;-68
2022/08/04 04:22:18;;;;;;;4.92;2.45;;;;;;;17.28;88.94;98339.75;1782566;79;20909;-67
2022/08/04 04:25:17;;;;;;;5.90;2.33;;;;;;;17.32;88.73;98336.62;1782707;79;20960;-67
2022/08/04 04:28:17;;;;;;;4.90;2.20;;;;;;;17.36;88.59;98338.91;1782546;80;20924;-66
2022/08/04 04:31:19;;;;;;;7.50;2.70;;;;;;;17.39;88.52;98333.41;1782612;80;20936;-66
2022/08/04 04:34:33;;;;;;;4.85;2.62;;;;;;;17.42;88.48;98329.50;1782364;80;21131;-67
2022/08/04 04:37:20;;;;;;;7.80;2.90;;;;;;;17.45;88.47;98332.88;1782577;80;20876;-67
2022/08/04 04:39:58;;;;;;;13.95;3.47;;;;;;;17.50;88.44;98329.23;1779544;80;20904;-66
2022/08/04 04:43:21;;;;;;;5.47;4.15;;;;;;;17.54;88.58;98320.70;1782715;80;21427;-66
2022/08/04 04:46:06;;;;;;;8.15;3.98;;;;;;;17.61;88.41;98327.75;1782728;80;20924;-67
2022/08/04 04:48:42;;;;;;;;;;;;;;;17.68;88.11;98331.54;1785301;80;21120;-66
2022/08/04 04:51:32;;;;;;;;;;;;;;;17.74;88.00;98328.86;1785393;80;20066;-68
2022/08/04 04:54:19;;;;;;;8.50;3.70;;;;;;;17.77;87.78;98326.05;1782747;80;20083;-68
2022/08/04 04:57:17;;;;;;;12.15;3.67;;;;;;;17.80;87.72;98329.47;1782597;80;20881;-68
2022/08/04 04:59:58;;;;;;;5.72;2.75;;;;;;;17.84;87.73;98330.95;1782646;80;20975;-67
2022/08/04 05:02:56;;;;;;;6.03;2.60;;;;;;;17.89;87.70;98331.56;1782733;80;21178;-67
2022/08/04 05:05:50;;;;;;;7.92;3.35;;;;;;;17.97;87.62;98332.63;1782728;80;21526;-66
2022/08/04 05:08:28;;;;;;;9.48;2.75;;;;;;;18.07;87.52;98338.98;1782723;80;20889;-66
2022/08/04 05:11:18;;;;;;;6.35;2.60;;;;;;;18.17;87.24;98339.95;1782336;80;21483;-67
2022/08/04 05:13:52;;;;;;;3.10;1.80;;;;;;;18.27;87.03;98336.86;1782745;80;21451;-67
2022/08/04 05:16:32;;;;;;;2.58;2.08;;;;;;;18.36;86.11;98341.09;1782728;80;21214;-67
2022/08/04 05:19:40;;;;;;;6.12;2.10;;;;;;;18.45;85.17;98345.06;1784492;79;21395;-68
2022/08/04 05:22:14;;;;;;;6.05;2.08;;;;;;;18.51;83.35;98339.72;1761954;81;20959;-67
2022/08/04 05:24:44;;;;;;;4.35;1.87;;;;;;;18.59;83.25;98345.61;1746923;81;20865;-66
2022/08/04 05:27:18;;;;;;;4.95;2.27;;;;;;;18.68;83.18;98339.53;1769833;81;21356;-68
2022/08/04 05:29:56;;;;;;;4.90;2.20;;;;;;;18.76;82.28;98345.45;1769724;81;21482;-67
2022/08/04 05:32:27;;;;;;;5.70;2.12;;;;;;;18.82;82.04;98348.16;1769495;81;20868;-67
2022/08/04 05:35:08;;;;;;;2.90;2.05;;;;;;;18.89;82.00;98356.55;1769716;81;21475;-66
2022/08/04 05:37:35;;;;;;;3.52;2.20;;;;;;;18.95;81.89;98356.58;1769426;81;20979;-67
2022/08/04 05:40:05;;;;;;;5.62;2.08;;;;;;;19.01;81.34;98352.52;1769453;81;21389;-67
2022/08/04 05:42:33;;;;;;;6.00;2.55;;;;;;;19.05;80.80;98348.58;1769534;81;21670;-67
2022/08/04 05:45:00;;;;;;;6.62;2.30;;;;;;;19.10;80.30;98349.13;1768934;81;20975;-67
2022/08/04 05:47:27;;;;;;;2.90;2.12;;;;;;;19.13;79.61;98343.04;1769515;81;21470;-67
2022/08/04 05:49:54;;;;;;;4.78;2.67;;;;;;;19.17;80.07;98343.73;1768106;81;21050;-67
2022/08/04 05:52:20;;;;;;;5.30;2.95;;;;;;;19.25;80.44;98352.32;1768152;81;21062;-67
2022/08/04 05:54:48;;;;;;;8.88;2.62;;;;;;;19.33;80.45;98350.88;1789724;80;21157;-68
2022/08/04 05:57:14;;;;;;;5.67;2.95;;;;;;;19.42;80.39;98351.59;1790527;80;20867;-67
2022/08/04 05:59:45;;;;;;;5.92;2.52;;;;;;;19.49;79.85;98351.82;1789874;78;20868;-67
2022/08/04 06:02:09;;;;;;;5.62;2.83;;;;;;;19.57;79.55;98347.41;1828690;78;21391;-67
2022/08/04 06:04:41;;;;;;;4.47;2.72;;;;;;;19.62;79.23;98349.88;1800384;78;20967;-67
2022/08/04 06:07:09;;;;;;;3.60;2.27;;;;;;;19.67;78.99;98344.22;1751856;81;21215;-67
2022/08/04 06:09:37;;;;;;;6.60;2.72;;;;;;;19.77;79.22;98345.13;1751536;81;20927;-67
2022/08/04 06:12:08;;;;;;;9.75;3.12;;;;;;;19.89;79.31;98339.67;1751767;82;20924;-67
2022/08/04 06:14:42;;;;;;;3.33;2.67;;;;;;;20.00;79.10;98342.14;1781372;78;37868;-67
2022/08/04 06:17:12;;;;;;;5.10;2.70;;;;;;;20.11;78.59;98347.34;1822181;78;20964;-68
2022/08/04 06:19:39;;;;;;;6.33;3.05;;;;;;;20.19;78.56;98351.84;1779996;80;21248;-69
2022/08/04 06:22:08;;;;;;;7.78;3.25;;;;;;;20.25;78.37;98353.23;1790755;80;20939;-68
2022/08/04 06:24:35;;;;;;;5.60;3.20;;;;;;;20.29;77.85;98345.96;1748928;82;20979;-69
2022/08/04 06:27:03;;;;;;;8.13;4.15;;;;;;;20.32;77.77;98344.48;1810080;79;20880;-61
2022/08/04 06:29:35;;;;;;;5.03;3.02;;;;;;;20.36;77.82;98351.60;1810109;79;20962;-68
2022/08/04 06:32:02;;;;;;;3.77;3.15;;;;;;;20.43;77.84;98346.37;1780292;79;21106;-67
2022/08/04 06:34:30;;;;;;;6.28;3.25;;;;;;;20.49;77.43;98351.56;1782504;79;20995;-69
2022/08/04 06:36:57;;;;;;;9.28;3.37;;;;;;;20.57;78.21;98345.17;1776921;79;21384;-69
2022/08/04 06:39:24;;;;;;;6.33;2.95;;;;;;;20.64;77.67;98345.36;1793189;79;21015;-68
2022/08/04 06:41:54;;;;;;;3.85;3.30;;;;;;;20.75;77.81;98349.19;1749086;82;21080;-68
2022/08/04 06:44:20;;;;;;;6.60;3.60;;;;;;;20.87;78.36;98343.66;1749115;82;21438;-69
2022/08/04 06:46:47;;;;;;;3.62;2.95;;;;;;;20.99;77.01;98340.87;1781690;80;21102;-68
2022/08/04 06:49:13;;;;;;;4.62;3.45;;;;;;;21.05;76.62;98344.40;1749045;82;20979;-69
2022/08/04 06:51:40;;;;;;;7.70;3.05;;;;;;;21.12;76.87;98343.78;1749346;82;20958;-68
2022/08/04 06:59:17;;;;;;;6.90;2.98;;;;;;;21.35;76.04;98348.05;1749194;82;21537;-67
2022/08/04 07:01:44;;;;;;;5.53;2.95;;;;;;;21.43;75.60;98346.49;1749752;82;20919;-69
2022/08/04 07:04:10;;;;;;;4.83;3.12;;;;;;;21.52;75.34;98345.77;1782308;80;20949;-67
2022/08/04 07:06:38;;;;;;;7.28;3.08;;;;;;;21.60;75.42;98342.05;1749827;82;21034;-68
2022/08/04 07:09:05;;;;;;;12.90;3.00;;;;;;;21.66;74.31;98350.19;1790017;79;21203;-68
2022/08/04 07:11:32;;;;;;;5.00;2.80;;;;;;;21.70;73.97;98348.33;1802194;79;20876;-68
2022/08/04 07:13:59;;;;;;;5.67;2.80;;;;;;;21.74;73.85;98353.28;1782737;79;20963;-67
2022/08/04 07:16:25;;;;;;;4.17;2.80;;;;;;;21.76;73.83;98350.99;1749852;82;21506;-68
2022/08/04 07:18:52;;;;;;;6.85;2.75;;;;;;;21.78;73.58;98350.09;1792776;79;20932;-69
2022/08/04 07:21:22;;;;;;;9.78;2.90;;;;;;;21.83;73.80;98344.94;1771919;81;21119;-69
2022/08/04 07:23:50;;;;;;;4.17;2.95;;;;;;;21.93;73.95;98346.35;1753029;81;20935;-68
2022/08/04 07:26:18;;;;;;;4.67;2.70;;;;;;;22.00;73.28;98335.60;1807644;79;20974;-69
2022/08/04 07:28:46;;;;;;;7.30;2.75;;;;;;;22.04;73.32;98335.09;1807975;79;20926;-67
2022/08/04 07:31:16;;;;;;;11.85;2.83;;;;;;;22.13;73.81;98337.05;1794319;79;21415;-69
2022/08/04 07:33:43;;;;;;;6.47;2.60;;;;;;;22.27;73.88;98344.16;1764311;81;21123;-68
2022/08/04 07:36:10;;;;;;;5.50;2.25;;;;;;;22.38;72.74;98342.44;1794212;79;20914;-67
2022/08/04 07:38:38;;;;;;;8.00;2.47;;;;;;;22.49;72.09;98340.73;1807897;79;20918;-67
2022/08/04 07:41:05;;;;;;;7.10;2.20;;;;;;;22.59;71.61;98341.50;1804070;79;21012;-67
2022/08/04 07:43:32;;;;;;;3.15;2.47;;;;;;;22.68;71.08;98343.46;1800588;79;21045;-67
2022/08/04 07:45:58;;;;;;;5.78;2.05;;;;;;;22.74;71.00;98351.59;1798956;78;21747;-65
2022/08/04 07:48:25;;;;;;;7.15;2.45;;;;;;;22.82;71.42;98351.92;1806279;79;21635;-65
2022/08/04 07:50:51;;;;;;;4.58;2.30;;;;;;;22.93;71.86;98343.94;1779044;78;21486;-67
2022/08/04 07:53:18;;;;;;;6.50;2.30;;;;;;;23.01;70.90;98339.60;1787664;79;21088;-67
2022/08/04 07:55:45;;;;;;;5.22;2.77;;;;;;;23.11;70.97;98341.74;1806540;79;21115;-65
2022/08/04 07:58:11;;;;;;;11.68;2.85;;;;;;;23.20;70.09;98340.72;1807729;79;21229;-66
2022/08/04 08:00:38;;;;;;;3.45;2.30;;;;;;;23.27;70.10;98338.11;1807849;79;20954;-65
2022/08/04 08:03:05;;;;;;;6.65;2.47;;;;;;;23.35;69.05;98339.83;1807779;79;21014;-66
2022/08/04 08:05:32;;;;;;;5.00;2.50;;;;;;;23.40;69.56;98344.41;1800486;78;20901;-68
2022/08/04 08:07:58;;;;;;;7.33;2.40;;;;;;;23.50;68.99;98341.64;1802648;78;20916;-67
2022/08/04 08:10:25;;;;;;;4.75;2.40;;;;;;;23.57;69.66;98345.29;1782275;79;21568;-66
2022/08/04 08:12:52;;;;;;;5.40;2.15;;;;;;;23.60;68.04;98335.56;1799014;79;20871;-66
2022/08/04 08:15:19;;;;;;;5.62;2.92;;;;;;;23.58;68.77;98341.95;1800909;79;20846;-68
2022/08/04 08:17:45;;;;;;;4.20;1.92;;;;;;;23.62;68.60;98333.25;1792924;78;20915;-66
2022/08/04 08:20:12;;;;;;;3.60;1.92;;;;;;;23.65;67.39;98338.76;1757878;79;20891;-68
2022/08/04 08:22:42;;;;;;;8.25;2.60;;;;;;;23.67;67.40;98333.70;1747684;79;21267;-70
2022/08/04 08:25:10;;;;;;;6.58;2.40;;;;;;;23.74;67.71;98333.81;1765234;79;21461;-60
2022/08/04 08:27:37;;;;;;;4.25;2.08;;;;;;;23.81;68.01;98339.39;1750942;80;20942;-66
2022/08/04 08:30:06;;;;;;;3.25;2.27;;;;;;;23.90;67.46;98341.08;1768419;79;21098;-62
2022/08/04 08:32:32;;;;;;;5.28;2.15;;;;;;;24.01;67.11;98345.55;1754573;79;21411;-68
2022/08/04 08:34:59;;;;;;;3.70;2.12;;;;;;;24.10;67.08;98344.72;1761718;79;21704;-69
2022/08/04 08:37:36;;;;;;;4.20;2.10;;;;;;;24.16;66.37;98352.83;1758972;79;20911;-69
2022/08/04 08:40:35;;;;;;;5.20;2.20;;;;;;;24.17;66.10;98346.19;1762354;79;20954;-69
2022/08/04 08:43:13;;;;;;;6.45;2.25;;;;;;;24.21;66.51;98344.27;1775064;79;20915;-67
2022/08/04 08:46:11;;;;;;;6.95;2.10;;;;;;;24.31;66.17;98339.53;1775113;79;20891;-69
2022/08/04 08:48:50;;;;;;;3.42;1.92;;;;;;;24.45;66.59;98343.81;1742162;80;21113;-69
2022/08/04 08:51:52;;;;;;;4.95;2.27;;;;;;;24.61;65.25;98340.09;1742771;82;20939;-69
2022/08/04 08:54:45;;;;;;;4.37;1.92;;;;;;;24.66;63.83;98337.02;1765352;79;20911;-72
2022/08/04 08:58:04;;;;;;;6.28;1.95;;;;;;;24.68;63.72;98345.66;1778361;79;20852;-69
2022/08/04 09:00:48;;;;;;;4.83;1.92;;;;;;;24.58;62.17;98333.98;1756424;79;21058;-69
2022/08/04 09:03:46;;;;;;;9.47;2.33;;;;;;;24.47;62.84;98342.86;1764785;81;21959;-69
2022/08/04 09:06:45;;;;;;;5.78;2.00;;;;;;;24.52;63.20;98338.23;1736335;82;21061;-65
2022/08/04 09:09:56;;;;;;;5.33;1.80;;;;;;;24.67;64.42;98341.33;1769985;79;21060;-70
2022/08/04 09:12:40;;;;;;;3.65;2.05;;;;;;;24.90;63.66;98341.42;1736128;82;21033;-63
2022/08/04 09:15:23;;;;;;;;;;;;;;;25.09;62.01;98342.59;1748126;79;20895;-65
2022/08/04 09:17:58;;;;;;;7.85;2.20;;;;;;;25.20;62.69;98342.71;1762488;81;21120;-66
2022/08/04 09:20:41;;;;;;;4.47;2.20;;;;;;;25.27;61.60;98342.78;1766110;81;21103;-71
2022/08/04 09:23:33;;;;;;;4.30;1.92;;;;;;;25.25;60.70;98340.97;1796865;79;20950;-66
2022/08/04 09:26:37;;;;;;;5.62;1.90;;;;;;;25.28;60.83;98338.85;1797786;79;20940;-67
2022/08/04 09:29:38;;;;;;;4.55;1.90;;;;;;;25.23;61.32;98336.45;1679796;83;21180;-68
2022/08/04 09:32:34;;;;;;;5.03;2.02;;;;;;;25.18;60.46;98338.16;1700645;83;21806;-68
2022/08/04 09:35:24;;;;;;;3.55;2.10;;;;;;;25.12;61.26;98343.80;1780926;79;20912;-69
2022/08/04 09:38:10;;;;;;;7.17;2.37;;;;;;;25.08;61.14;98332.02;1744327;80;20900;-68
2022/08/04 09:40:57;;;;;;;3.05;1.98;;;;;;;25.20;61.38;98334.48;1799002;79;21059;-70
2022/08/04 09:43:59;;;;;;;3.25;2.20;;;;;;;25.40;60.51;98329.55;1798511;78;21489;-69
2022/08/04 09:47:00;;;;;;;9.28;2.17;;;;;;;25.59;60.94;98324.66;1781168;79;21238;-69
2022/08/04 09:49:41;;;;;;;4.83;2.15;;;;;;;25.83;60.11;98326.57;1767529;81;21474;-72
2022/08/04 09:52:28;;;;;;;3.75;1.95;;;;;;;26.09;60.26;98312.62;1750364;80;20932;-69
2022/08/04 09:55:27;;;;;;;4.65;1.90;;;;;;;26.11;58.21;98306.19;1766364;78;21078;-70
2022/08/04 09:58:42;;;;;;;13.00;2.42;;;;;;;25.94;59.05;98313.12;1744809;80;21107;-71
2022/08/04 10:01:17;;;;;;;4.55;2.15;;;;;;;25.70;58.71;98318.65;1798781;79;21243;-70
2022/08/04 10:03:53;;;;;;;6.47;2.08;;;;;;;25.60;59.82;98317.98;1751710;82;20974;-70
2022/08/04 10:06:59;;;;;;;4.17;2.00;;;;;;;25.72;60.30;98310.03;1759963;80;21003;-70
2022/08/04 10:10:02;;;;;;;5.60;1.80;;;;;;;25.94;60.11;98306.26;1797138;79;20961;-71
2022/08/04 10:13:00;;;;;;;6.22;2.05;;;;;;;26.21;58.47;98309.00;1712825;83;21535;-68
2022/08/04 10:15:42;;;;;;;5.55;2.05;;;;;;;26.44;58.67;98303.20;1777162;80;22054;-69
2022/08/04 10:18:14;;;;;;;4.33;2.17;;;;;;;26.58;56.90;98296.38;1775401;80;21002;-69
2022/08/04 10:21:07;;;;;;;5.20;2.00;;;;;;;26.75;56.60;98301.17;1759329;78;21082;-72
2022/08/04 10:24:03;;;;;;;5.15;2.17;;;;;;;26.75;55.66;98299.80;1767367;81;21054;-71
2022/08/04 10:26:53;;;;;;;6.12;2.55;;;;;;;26.39;56.99;98298.07;1767792;81;20913;-71
2022/08/04 10:29:42;;;;;;;4.30;2.58;;;;;;;26.39;56.99;98298.07;1767891;81;21495;-69
2022/08/04 10:32:28;;;;;;;5.70;2.12;;;;;;;26.37;57.33;98305.91;1767907;81;20991;-70
2022/08/04 10:35:11;;;;;;;2.72;1.90;;;;;;;26.54;56.60;98303.83;1767903;81;20956;-71
2022/08/04 10:38:20;;;;;;;6.92;2.00;;;;;;;26.71;54.53;98303.07;1767474;81;20992;-71
2022/08/04 10:41:06;;;;;;;7.17;1.95;;;;;;;26.78;54.50;98308.61;1767946;81;21483;-70
2022/08/04 10:43:44;;;;;;;2.65;1.98;;;;;;;26.83;53.52;98306.07;1767926;81;21237;-73
2022/08/04 10:46:20;;;;;;;7.05;1.98;;;;;;;26.87;53.69;98302.18;1767825;81;21511;-70
2022/08/04 10:49:03;;;;;;;4.60;1.98;;;;;;;26.93;54.33;98300.61;1767723;81;21012;-69
2022/08/04 10:51:55;;;;;;;9.83;2.30;;;;;;;26.89;54.06;98295.70;1768036;81;20965;-68
2022/08/04 10:55:07;;;;;;;3.87;1.98;;;;;;;26.89;54.49;98297.66;1768049;81;20980;-71
2022/08/04 10:57:51;;;;;;;4.58;2.00;;;;;;;26.88;53.79;98290.00;1768226;81;21022;-69
2022/08/04 11:00:24;;;;;;;8.10;1.72;;;;;;;26.80;53.74;98299.42;1767933;81;20933;-69
2022/08/04 11:03:26;;;;;;;4.03;1.90;;;;;;;26.72;54.00;98292.29;1768266;81;20905;-69
2022/08/04 11:06:03;;;;;;;4.12;2.05;;;;;;;26.64;53.60;98293.44;1768900;79;21468;-69
2022/08/04 11:08:34;;;;;;;4.08;2.00;;;;;;;26.43;54.08;98292.00;1779920;79;20928;-68
2022/08/04 11:11:43;;;;;;;4.97;2.00;;;;;;;26.33;55.02;98292.77;1754626;80;21745;-71
2022/08/04 11:14:21;;;;;;;3.35;2.02;;;;;;;26.36;53.82;98293.34;1790206;78;21199;-68
2022/08/04 11:17:00;;;;;;;4.65;2.00;;;;;;;26.43;55.27;98284.55;1780843;79;20884;-69
2022/08/04 11:20:23;;;;;;;3.52;1.82;;;;;;;26.65;55.14;98285.41;1790279;79;21055;-69
2022/08/04 11:23:01;;;;;;;4.42;2.00;;;;;;;26.87;55.25;98281.57;1800818;79;20964;-69
2022/08/04 11:25:45;;;;;;;4.08;1.87;;;;;;;27.17;54.45;98273.53;1807391;79;21553;-72
2022/08/04 11:28:40;;;;;;;4.40;2.05;;;;;;;27.29;54.38;98278.64;1807245;79;20972;-67
2022/08/04 11:31:11;;;;;;;3.65;2.17;;;;;;;27.29;52.20;98269.02;1798047;79;21525;-67
2022/08/04 11:34:05;;;;;;;3.60;1.72;;;;;;;27.18;52.58;98275.11;1798211;79;21002;-68
2022/08/04 11:36:52;;;;;;;3.10;1.90;;;;;;;27.31;51.54;98277.66;1798763;79;20852;-69
2022/08/04 11:39:27;;;;;;;5.92;2.20;;;;;;;27.54;50.96;98271.97;1796915;79;21222;-70
2022/08/04 11:42:32;;;;;;;4.15;1.95;;;;;;;27.72;51.93;98276.84;1803695;78;21034;-68
2022/08/04 11:45:08;;;;;;;5.03;1.82;;;;;;;27.76;50.74;98281.77;1796673;79;20976;-67
2022/08/04 11:47:41;;;;;;;4.05;1.80;;;;;;;27.61;50.77;98287.67;1798936;79;20951;-69
2022/08/04 11:50:33;;;;;;;6.78;2.00;;;;;;;27.38;51.00;98284.55;1794068;79;21133;-69
2022/08/04 11:53:01;;;;;;;6.62;1.90;;;;;;;27.14;52.39;98275.89;1788513;79;21297;-69
2022/08/04 11:55:28;;;;;;;5.50;2.45;;;;;;;26.96;52.70;98281.97;1797346;79;20987;-71
2022/08/04 11:57:54;;;;;;;5.03;2.27;;;;;;;26.84;52.63;98280.97;1790356;79;21014;-70
2022/08/04 12:00:21;;;;;;;4.30;2.30;;;;;;;26.76;53.00;98278.00;1802477;79;20927;-70
2022/08/04 12:03:01;;;;;;;8.05;2.10;;;;;;;26.72;53.45;98275.80;1791100;79;21017;-70
2022/08/04 12:05:37;;;;;;;5.62;2.35;;;;;;;26.73;53.67;98276.02;1764909;80;21141;-70
2022/08/04 12:08:27;;;;;;;4.92;2.00;;;;;;;26.71;53.04;98278.34;1743399;81;21546;-72
2022/08/04 12:11:35;;;;;;;6.55;2.40;;;;;;;26.72;53.46;98279.93;1747209;81;21533;-70
2022/08/04 12:14:25;;;;;;;5.97;2.35;;;;;;;26.78;53.83;98274.27;1752268;81;21061;-68
2022/08/04 12:17:04;;;;;;;4.62;2.05;;;;;;;26.90;54.41;98276.64;1805298;78;21063;-69
2022/08/04 12:19:54;;;;;;;6.83;2.45;;;;;;;27.07;53.61;98267.64;1782191;79;21221;-69
2022/08/04 12:22:26;;;;;;;7.25;2.55;;;;;;;27.19;53.40;98269.21;1756015;79;20970;-73
2022/08/04 12:25:06;;;;;;;10.72;2.65;;;;;;;27.50;52.80;98263.53;1765082;79;20942;-69
2022/08/04 12:27:48;;;;;;;3.87;2.20;;;;;;;27.73;52.41;98255.62;1760030;79;20903;-71
2022/08/04 12:30:17;;;;;;;7.25;2.40;;;;;;;27.85;51.96;98260.70;1767602;81;20966;-71
2022/08/04 12:32:52;;;;;;;5.92;2.45;;;;;;;27.88;52.14;98250.28;1757621;79;21235;-70
2022/08/04 12:35:44;;;;;;;5.42;2.37;;;;;;;27.86;51.53;98252.66;1760358;79;20978;-72
2022/08/04 12:38:13;;;;;;;5.37;2.10;;;;;;;27.74;51.67;98258.58;1768268;81;20923;-71
2022/08/04 12:40:53;;;;;;;5.47;2.17;;;;;;;27.56;51.36;98252.30;1748880;81;20942;-73
2022/08/04 12:43:39;;;;;;;6.40;2.10;;;;;;;27.71;51.68;98253.86;1774568;80;20942;-69